Uniontown, Missouri
Current Conditions -  °F | °C
As of 7:53 PM on Sunday 21 Dec 2014 (Local Time) from KCGI Reporting Station
Overcast Overcast  
Wind Chill: 37°   Ceiling: 10000
Heat Index: 37°   Visibility: 10mi
Dew Point: 33°   Wind: 3mph
Humidity: 86%   Direction: 80°E
Pressure: 30.02"   Gusts: NA
Location:  37.61°N, 89.71°W
Report Text: KCGI 220153Z AUTO 08003KT 10SM FEW075 OVC100 03/01 A3002 RMK AO2 SLP168 T00280006 TSNO
Loading
Personal Weather Stations






























Interactive Weather Map New forecast layout! Learn more

10-Day Weather Forecast

Advertisements
Track Severe Weather on mobile